createdAt,value
2023-05-10T00:00:28.612Z,49.06
2023-05-10T00:04:29.976Z,49.04
2023-05-10T00:08:31.290Z,49.31
2023-05-10T00:12:32.777Z,49.06
2023-05-10T00:16:34.414Z,49.39
2023-05-10T00:20:35.897Z,49.42
2023-05-10T00:24:37.190Z,49.55
2023-05-10T00:28:38.507Z,49.15
2023-05-10T00:32:39.828Z,49.09
2023-05-10T00:36:41.311Z,48.80
2023-05-10T00:40:42.784Z,49.18
2023-05-10T00:44:44.081Z,49.13
2023-05-10T00:48:46.257Z,49.01
2023-05-10T00:52:47.986Z,48.99
2023-05-10T00:56:50.244Z,49.13
2023-05-10T01:00:52.246Z,49.57
2023-05-10T01:04:53.669Z,48.96
2023-05-10T01:08:55.196Z,49.12
2023-05-10T01:12:57.011Z,48.85
2023-05-10T01:16:58.428Z,49.67
2023-05-10T01:21:20.277Z,49.10
2023-05-10T01:26:07.291Z,48.87
2023-05-10T01:30:22.352Z,49.04
2023-05-10T01:34:36.604Z,48.98
2023-05-10T01:38:51.519Z,49.14
2023-05-10T01:42:59.273Z,48.34
2023-05-10T01:47:18.005Z,48.41
2023-05-10T01:51:23.970Z,48.72
2023-05-10T01:55:29.478Z,49.07
2023-05-10T01:59:37.317Z,48.80
2023-05-10T02:03:40.903Z,48.55
2023-05-10T02:07:43.601Z,48.05
2023-05-10T02:11:45.191Z,48.21
2023-05-10T02:15:51.816Z,48.50
2023-05-10T02:19:56.090Z,48.47
2023-05-10T02:23:58.247Z,48.24
2023-05-10T02:28:02.488Z,49.20
2023-05-10T02:32:04.844Z,49.46
2023-05-10T02:36:08.979Z,49.58
2023-05-10T02:40:11.982Z,50.24
2023-05-10T02:44:16.224Z,50.44
2023-05-10T02:48:17.891Z,50.54
2023-05-10T02:52:24.257Z,50.16
2023-05-10T02:56:35.192Z,50.17
2023-05-10T03:00:37.185Z,50.70
2023-05-10T03:04:38.562Z,50.83
2023-05-10T03:08:41.187Z,50.57
2023-05-10T03:12:49.140Z,50.26
2023-05-10T03:17:05.110Z,50.79
2023-05-10T03:21:13.306Z,50.25
2023-05-10T03:25:17.430Z,49.81
2023-05-10T03:29:20.065Z,49.72
2023-05-10T03:33:21.924Z,50.21
2023-05-10T03:37:23.317Z,50.12
2023-05-10T03:41:26.007Z,49.81
2023-05-10T03:45:28.016Z,49.86
2023-05-10T03:49:29.641Z,49.89
2023-05-10T03:53:31.006Z,49.82
2023-05-10T03:57:32.273Z,50.63
2023-05-10T04:01:34.743Z,49.93
2023-05-10T04:05:36.720Z,49.91
2023-05-10T04:09:38.125Z,49.94
2023-05-10T04:13:39.495Z,50.30
2023-05-10T04:17:41.102Z,50.21
2023-05-10T04:21:42.493Z,50.40
2023-05-10T04:25:43.971Z,50.66
2023-05-10T04:29:45.344Z,50.22
2023-05-10T04:33:46.702Z,50.54
2023-05-10T04:37:48.033Z,49.98
2023-05-10T04:41:49.406Z,50.46
2023-05-10T04:45:51.141Z,50.55
2023-05-10T04:49:52.446Z,50.49
2023-05-10T04:54:05.199Z,50.69
2023-05-10T04:58:08.296Z,50.30
2023-05-10T05:02:09.656Z,49.87
2023-05-10T05:06:11.053Z,50.19
2023-05-10T05:10:12.412Z,50.38
2023-05-10T05:14:13.910Z,49.47
2023-05-10T05:18:15.247Z,49.51
2023-05-10T05:22:19.637Z,49.94
2023-05-10T05:26:21.140Z,49.05
2023-05-10T05:30:22.516Z,49.51
2023-05-10T05:34:25.084Z,49.44
2023-05-10T05:38:26.465Z,48.83
2023-05-10T05:42:27.956Z,49.37
2023-05-10T05:46:37.416Z,48.98
2023-05-10T05:50:38.712Z,48.23
2023-05-10T05:54:40.567Z,48.28
2023-05-10T05:58:41.888Z,47.93
2023-05-10T06:02:43.373Z,47.57
2023-05-10T06:06:45.029Z,47.36
2023-05-10T06:10:46.456Z,47.33
2023-05-10T06:14:47.960Z,46.76
2023-05-10T06:18:49.625Z,47.10
2023-05-10T06:22:51.053Z,47.19
2023-05-10T06:26:52.479Z,46.34
2023-05-10T06:30:53.767Z,47.32
2023-05-10T06:34:55.140Z,46.61
2023-05-10T06:38:56.433Z,46.34
2023-05-10T06:42:57.849Z,47.59
2023-05-10T06:46:59.200Z,46.88
2023-05-10T06:51:00.548Z,46.14
2023-05-10T06:55:02.634Z,45.91
2023-05-10T06:59:04.028Z,46.57
2023-05-10T07:03:05.460Z,46.55
2023-05-10T07:07:06.948Z,46.25
2023-05-10T07:11:11.604Z,46.81
2023-05-10T07:15:13.224Z,47.25
2023-05-10T07:19:14.561Z,46.71
2023-05-10T07:23:16.062Z,46.25
2023-05-10T07:27:17.391Z,45.91
2023-05-10T07:31:18.716Z,45.27
2023-05-10T07:35:20.150Z,44.85
2023-05-10T07:39:27.637Z,45.48
2023-05-10T07:43:29.267Z,45.89
2023-05-10T07:47:30.881Z,46.57
2023-05-10T07:51:32.632Z,45.67
2023-05-10T07:55:34.206Z,44.92
2023-05-10T07:59:35.488Z,44.88
2023-05-10T08:03:36.917Z,44.92
2023-05-10T08:07:38.299Z,45.46
2023-05-10T08:11:39.822Z,44.49
2023-05-10T08:15:41.217Z,45.19
2023-05-10T08:19:42.629Z,44.16
2023-05-10T08:23:44.979Z,44.59
2023-05-10T08:27:46.617Z,43.89
2023-05-10T08:31:47.968Z,43.50
2023-05-10T08:35:52.447Z,44.72
2023-05-10T08:39:53.814Z,44.33
2023-05-10T08:43:55.703Z,45.14
2023-05-10T08:47:57.371Z,45.98
2023-05-10T08:52:02.716Z,46.34
2023-05-10T08:56:04.602Z,46.18
2023-05-10T09:00:06.650Z,46.01
2023-05-10T09:04:08.039Z,46.30
2023-05-10T09:08:09.845Z,44.95
2023-05-10T09:12:12.541Z,44.10
2023-05-10T09:16:21.179Z,44.09
2023-05-10T09:20:23.489Z,43.02
2023-05-10T09:24:28.127Z,43.24
2023-05-10T09:28:33.016Z,42.56
2023-05-10T09:32:49.175Z,41.54
2023-05-10T09:36:59.527Z,44.00
2023-05-10T09:41:03.548Z,43.28
2023-05-10T09:45:05.980Z,42.42
2023-05-10T09:49:07.573Z,42.64
2023-05-10T09:53:08.892Z,42.82
2023-05-10T09:57:21.222Z,43.57
2023-05-10T10:01:27.279Z,42.94
2023-05-10T10:05:36.275Z,42.43
2023-05-10T10:09:37.549Z,40.17
2023-05-10T10:13:39.017Z,39.19
2023-05-10T10:17:41.547Z,39.43
2023-05-10T10:21:42.879Z,39.02
2023-05-10T10:25:45.708Z,37.72
2023-05-10T10:29:52.640Z,36.70
2023-05-10T10:34:26.991Z,35.23
2023-05-10T10:38:46.792Z,33.33
2023-05-10T10:42:50.683Z,32.69
2023-05-10T10:47:12.127Z,33.43
2023-05-10T10:51:14.538Z,34.32
2023-05-10T10:55:20.276Z,33.33
2023-05-10T10:59:28.869Z,31.96
2023-05-10T11:03:30.230Z,31.66
2023-05-10T11:07:32.134Z,32.28
2023-05-10T11:11:35.660Z,33.34
2023-05-10T11:15:41.226Z,33.38
2023-05-10T11:20:15.521Z,33.96
2023-05-10T11:24:21.899Z,33.32
2023-05-10T11:28:23.912Z,34.80
2023-05-10T11:32:25.510Z,34.60
2023-05-10T11:36:28.823Z,34.46
2023-05-10T11:40:30.175Z,34.77
2023-05-10T11:44:32.463Z,34.48
2023-05-10T11:48:34.167Z,35.03
2023-05-10T11:52:38.734Z,35.46
2023-05-10T11:56:40.974Z,34.97
2023-05-10T12:00:42.592Z,34.25
2023-05-10T12:04:43.977Z,33.72
2023-05-10T12:08:47.581Z,33.08
2023-05-10T12:12:49.098Z,33.34
2023-05-10T12:16:50.849Z,32.25
2023-05-10T12:20:55.435Z,32.22
2023-05-10T12:24:56.736Z,31.57
2023-05-10T12:29:18.890Z,30.55
2023-05-10T12:33:20.424Z,30.33
2023-05-10T12:37:25.351Z,30.61
2023-05-10T12:41:26.721Z,31.48
2023-05-10T12:45:28.085Z,30.37
2023-05-10T12:49:29.514Z,29.47
2023-05-10T12:53:30.910Z,29.76
2023-05-10T12:57:32.237Z,30.75
2023-05-10T13:01:33.560Z,30.04
2023-05-10T13:05:35.224Z,29.37
2023-05-10T13:09:36.667Z,29.29
2023-05-10T13:13:37.934Z,29.67
2023-05-10T13:17:41.636Z,29.86
2023-05-10T13:21:43.335Z,30.00
2023-05-10T13:25:44.611Z,31.86
2023-05-10T13:29:47.036Z,31.01
2023-05-10T13:33:49.968Z,31.03
2023-05-10T13:37:51.357Z,31.27
2023-05-10T13:41:53.863Z,30.38
2023-05-10T13:45:56.002Z,30.95
2023-05-10T13:49:58.314Z,30.03
2023-05-10T13:53:59.702Z,30.15
2023-05-10T13:58:01.096Z,30.19
2023-05-10T14:02:05.488Z,31.11
2023-05-10T14:06:08.358Z,30.10
2023-05-10T14:10:10.072Z,29.38
2023-05-10T14:14:11.461Z,29.37
2023-05-10T14:18:12.815Z,30.61
2023-05-10T14:22:14.188Z,29.88
2023-05-10T14:26:15.486Z,29.09
2023-05-10T14:30:16.830Z,27.95
2023-05-10T14:34:18.366Z,28.92
2023-05-10T14:38:19.727Z,28.17
2023-05-10T14:42:21.449Z,28.33
2023-05-10T14:46:22.832Z,28.38
2023-05-10T14:50:35.738Z,29.13
2023-05-10T14:54:38.592Z,29.24
2023-05-10T14:58:39.906Z,29.39
2023-05-10T15:02:41.357Z,28.95
2023-05-10T15:06:43.702Z,29.76
2023-05-10T15:10:45.071Z,30.08
2023-05-10T15:14:46.404Z,30.62
2023-05-10T15:18:48.044Z,30.95
2023-05-10T15:22:49.646Z,31.50
2023-05-10T15:26:50.933Z,31.11
2023-05-10T15:30:52.482Z,31.52
2023-05-10T15:34:53.863Z,31.40
2023-05-10T15:38:55.695Z,29.83
2023-05-10T15:42:56.996Z,30.30
2023-05-10T15:46:58.393Z,28.69
2023-05-10T15:50:59.851Z,29.86
2023-05-10T15:55:01.247Z,29.23
2023-05-10T15:59:03.722Z,30.26
2023-05-10T16:03:05.302Z,30.10
2023-05-10T16:07:06.792Z,30.22
2023-05-10T16:11:08.313Z,30.58
2023-05-10T16:15:10.392Z,30.13
2023-05-10T16:19:11.750Z,31.14
2023-05-10T16:23:14.091Z,30.91
2023-05-10T16:27:15.634Z,31.07
2023-05-10T16:31:18.703Z,31.15
2023-05-10T16:35:20.717Z,31.18
2023-05-10T16:39:22.049Z,30.87
2023-05-10T16:43:25.874Z,31.17
2023-05-10T16:47:27.516Z,31.00
2023-05-10T16:51:29.379Z,32.02
2023-05-10T16:55:30.799Z,31.68
2023-05-10T16:59:32.076Z,32.42
2023-05-10T17:03:33.978Z,31.54
2023-05-10T17:07:35.598Z,31.93
2023-05-10T17:11:36.984Z,31.83
2023-05-10T17:15:39.373Z,32.80
2023-05-10T17:19:44.674Z,33.42
2023-05-10T17:23:46.015Z,33.06
2023-05-10T17:27:47.333Z,32.88
2023-05-10T17:31:48.668Z,32.76
2023-05-10T17:35:50.439Z,34.15
2023-05-10T17:39:51.851Z,34.34
2023-05-10T17:43:53.960Z,35.55
2023-05-10T17:47:55.363Z,35.39
2023-05-10T17:51:56.761Z,35.89
2023-05-10T17:55:59.009Z,36.00
2023-05-10T18:00:02.159Z,37.00
2023-05-10T18:04:04.617Z,36.30
2023-05-10T18:08:07.139Z,35.56
2023-05-10T18:12:08.541Z,34.33
2023-05-10T18:16:12.579Z,33.99
2023-05-10T18:20:14.030Z,33.99
2023-05-10T18:24:16.863Z,34.64
2023-05-10T18:28:21.589Z,35.05
2023-05-10T18:32:23.721Z,36.27
2023-05-10T18:36:25.124Z,37.96
2023-05-10T18:40:27.219Z,39.38
2023-05-10T18:44:28.951Z,41.24
2023-05-10T18:48:30.255Z,41.73
2023-05-10T18:52:31.870Z,42.21
2023-05-10T18:56:33.545Z,42.43
2023-05-10T19:00:34.862Z,42.03
2023-05-10T19:04:36.177Z,42.73
2023-05-10T19:08:37.471Z,43.80
2023-05-10T19:12:41.085Z,44.83
2023-05-10T19:16:43.298Z,44.63
2023-05-10T19:20:44.698Z,44.76
2023-05-10T19:24:47.129Z,46.13
2023-05-10T19:28:50.801Z,47.68
2023-05-10T19:32:52.463Z,47.50
2023-05-10T19:36:54.388Z,47.84
2023-05-10T19:40:59.535Z,46.22
2023-05-10T19:45:01.044Z,47.53
2023-05-10T19:49:02.462Z,46.56
2023-05-10T19:53:03.820Z,46.22
2023-05-10T19:57:05.527Z,45.18
2023-05-10T20:01:07.694Z,45.50
2023-05-10T20:05:09.550Z,45.50
2023-05-10T20:09:10.899Z,47.17
2023-05-10T20:13:12.376Z,49.02
2023-05-10T20:17:13.659Z,49.73
2023-05-10T20:21:15.046Z,49.01
2023-05-10T20:25:18.064Z,49.52
2023-05-10T20:29:19.460Z,49.21
2023-05-10T20:33:25.385Z,48.10
2023-05-10T20:37:28.004Z,48.10
2023-05-10T20:41:29.451Z,47.41
2023-05-10T20:45:30.916Z,48.00
2023-05-10T20:49:32.362Z,49.93
2023-05-10T20:53:33.784Z,48.56
2023-05-10T20:57:35.284Z,48.17
2023-05-10T21:01:36.658Z,49.07
2023-05-10T21:05:38.160Z,47.92
2023-05-10T21:09:39.558Z,47.60
2023-05-10T21:13:40.898Z,46.77
2023-05-10T21:17:42.248Z,49.20
2023-05-10T21:21:43.596Z,47.72
2023-05-10T21:25:44.978Z,48.29
2023-05-10T21:29:46.500Z,46.11
2023-05-10T21:33:47.903Z,46.50
2023-05-10T21:37:49.368Z,45.35
2023-05-10T21:41:50.968Z,44.94
2023-05-10T21:45:52.366Z,46.76
2023-05-10T21:49:53.736Z,46.31
2023-05-10T21:53:55.095Z,47.18
2023-05-10T21:57:57.603Z,47.61
2023-05-10T22:01:59.066Z,45.99
2023-05-10T22:06:00.605Z,46.17
2023-05-10T22:10:01.986Z,46.13
2023-05-10T22:14:03.313Z,46.24
2023-05-10T22:18:04.848Z,47.28
2023-05-10T22:22:06.259Z,48.07
2023-05-10T22:26:07.516Z,47.17
2023-05-10T22:30:09.332Z,47.08
2023-05-10T22:34:10.806Z,46.76
2023-05-10T22:38:12.760Z,47.07
2023-05-10T22:42:14.122Z,46.72
2023-05-10T22:46:15.853Z,46.87
2023-05-10T22:50:18.493Z,47.30
2023-05-10T22:54:20.052Z,47.09
2023-05-10T22:58:21.436Z,46.64
2023-05-10T23:02:22.774Z,46.99
2023-05-10T23:06:24.093Z,47.00
2023-05-10T23:10:25.407Z,47.23
2023-05-10T23:14:26.781Z,46.53
2023-05-10T23:18:28.127Z,45.90
2023-05-10T23:22:29.584Z,45.13
2023-05-10T23:26:30.875Z,45.04
2023-05-10T23:30:32.236Z,45.16
2023-05-10T23:34:33.596Z,45.06
2023-05-10T23:38:34.907Z,45.04
2023-05-10T23:42:36.217Z,44.92
2023-05-10T23:46:37.675Z,44.08
2023-05-10T23:50:44.442Z,44.90
2023-05-10T23:54:46.065Z,44.10
2023-05-10T23:58:47.479Z,43.94
